الصفحة الرئيسية
METAR-TAF:

METAR-TAF

مطار :

Komatsujima, اليابان

دائرة عرض: 34-00N, خط طول: 134-38E, ارتفاع: 3 متر

مراقبة الطقس الحالي

تاريخ ووقت الإصدار 34 دقيقة قبل الساعة 00:48UTC
ريح 3 عقدة من الشمال/الشمال الشرقي, الاتجاه يتراوح بين الشمال و الشرق/الشمال الشرقي
درجة الحرارة 25°درجة مئوية
الرطوبة 89%
ضغط 1010 hPa
الرؤية: 1000 متر
غيوم متفرقة على ارتفاع 200 قدم
غيوم مفككة على ارتفاع 700 قدم
غيوم مفككة على ارتفاع 10000 قدم
المطارات التي يغطيها الضباب جزئيا, غشاء

METAR: RJOP 250048Z 03003KT 350V070 1000 PRFG BR SCT002 BKN007 BKN100 25/23 Q1010 RMK 4ST002 5ST007 7AC100 A2983 FG NW-NE 9999SE-SW

زمن: 10:22 (01:22 UTC)


TAF: مفقودة

أرصاد الطقس والتوقعات من أكثر من 4000 مطار (تقارير الطقس للمطار METAR والتنبؤ بالطقس بالمطارTAF).

المحطات المتاحة هي النقط الصفراء والحمراء على الخريطة.

حرك المؤشر فوق النقطة لمعرفة اسم المحطة.

ثم انقر لمعرفة أرصاد وتوقعات الطقس.

لتغيير الخارطة: اضغط على الأزرار الخضراء مع رمز الصليب الأسود للتكبير. على الزر الأخضر مع شرطة للتصغير، أو على الأسهم الخضراء للخرائط المجاورة.


METAR-TAF: